Tiempo atmosférico en la estación meteorológica de Carrión De Los Condes, Palencia (830 m.)



Fecha
DESCASC
Temp. máxima en grados centígrados (hora)
DESCASC
Temp. mínima en grados centígrados (hora)
DESCASC
Temp. media en grados centígrados
DESCASC
Racha de viento máxima en m/sg (hora)
DESCASC
Velocidad máxima media en intervalos de 10 minutos(hora)
DESCASC
Precipitaciones diarias en mm
DESCASC
Precipitaciones de 00:00 a 06:00 en mm
DESCASC
Precipitaciones de 06:00 a 12:00 en mm
DESCASC
Precipitaciones de 12:00 a 18:00 en mm
DESCASC
Precipitaciones de 18:00 a 24:00 en mm
DESCASC
20-05-2018 23.1 (17:50) 5.3 (05:50) 14.2 8.89 (13:30) 3.61 (15:10) 0 0 0 0 0
19-05-2018 23.4 (16:40) 8.6 (04:40) 16 9.44 (13:00) 3.61 (13:00) 0 0 0 0 0
18-05-2018 21.6 (15:00) 8.7 (00:00) 15.2 15 (08:30) 4.44 (13:00) 0 0 0 0 0
17-05-2018 22.6 (16:40) 8 (00:00) 15.3 11.39 (18:40) 5.28 (19:50) 0 0 0 0 0
16-05-2018 20.8 (16:40) 2.2 (00:00) 11.5 11.11 (18:20) 4.72 (17:00) 0 0 0 0 0
15-05-2018 20 (16:10) 0 (00:00) 10 10.83 (18:10) 4.44 (16:50) 0 0 0 0 0
14-05-2018 16.9 (18:10) 5.2 (00:00) 11 8.61 (16:10) 3.61 (12:20) 0.4 0 0.4 0 0
13-05-2018 15.3 (15:00) -1.8 (-00:0) 6.8 8.33 (16:10) 3.33 (16:10) 0 0 0 0 0
12-05-2018 15.8 (16:40) 2.4 (00:00) 9.1 14.17 (20:10) 3.89 (20:50) 0 0 0 0 0
11-05-2018 22.1 (15:20) 0.9 (06:40) 11.5 11.11 (15:00) 4.44 (16:30) 0 0 0 0 0
10-05-2018 16.7 (18:10) 4 (00:00) 10.4 10.28 (14:30) 4.72 (14:20) 0 0 0 0 0
09-05-2018 22 (16:00) 3.8 (00:00) 12.9 8.61 (20:50) 3.89 (21:50) 0 0 0 0 0
08-05-2018 23 (15:30) 7.1 (00:00) 15 10.28 (19:20) 4.72 (18:40) 0 0 0 0 0
07-05-2018 25.3 (16:50) 9.1 (00:00) 17.2 7.78 (14:40) 3.61 (21:20) 0 0 0 0 0
06-05-2018 24.1 (17:30) 7.5 (00:00) 15.8 8.33 (02:50) 3.61 (02:50) 0 0 0 0 0
05-05-2018 19.7 (16:20) 4.1 (00:00) 11.9 12.5 (14:50) 5.28 (19:30) 0 0 0 0 0
04-05-2018 13.1 (17:00) 2.2 (00:00) 7.7 15.28 (15:30) 7.22 (15:30) 0 0 0 0 0
03-05-2018 13.9 (15:20) 3.4 (00:00) 8.6 12.78 (17:30) 5.56 (17:40) 0 0 0 0 0
02-05-2018 16.9 (17:10) 5.3 (00:00) 11.1 9.17 (12:20) 3.06 (00:30) 0 0 0 0 0
01-05-2018 13.7 (17:40) -1.2 (07:30) 6.2 8.06 (16:30) 3.33 (17:20) 0 0 0 0 0
30-04-2018 10.1 (17:30) 0.2 (00:00) 5.2 8.33 (18:00) 2.78 (00:10) 5.6 0 0 2 3.6
29-04-2018 11.4 (18:30) 1.7 (00:00) 6.5 11.67 (18:40) 4.44 (18:50) 2.4 0 0 1.2 1.2
28-04-2018 16.6 (16:20) 3.9 (00:00) 10.3 10.28 (18:10) 4.44 (16:30) 0 0 0 0 0
27-04-2018 20.5 (17:50) 4.6 (00:00) 12.5 8.89 (23:30) 3.89 (14:00) 0 0 0 0 0
26-04-2018 20.4 (18:00) 6 (00:00) 13.2 11.67 (09:10) 4.72 (09:00) 0 0 0 0 0
25-04-2018 23.3 (16:20) 9.1 (00:00) 16.2 13.33 (19:20) 6.11 (19:20) 0 0 0 0 0
24-04-2018 25.3 (17:30) 9 (00:00) 17.1 7.22 (01:10) 3.61 (00:40) 0 0 0 0 0
23-04-2018 22.8 (17:30) 8.1 (00:00) 15.4 7.5 (16:00) 3.89 (15:50) 0 0 0 0 0
22-04-2018 21.5 (16:00) 6.6 (00:00) 14 6.11 (16:40) 2.5 (10:40) 0 0 0 0 0

Gráficas

Temp. máximas Temp. mínimas Temp. medias Precipitaciones Rachas de viento máximas Velocidades máximas media en intervalos de 10 minutos

Datos horarios

Fecha y hora oficial Temperatura (ºC) Velocidad del viento (km/h) Dirección del viento Racha (km/h) Dirección de racha Precipitación (mm) Presión (hPa) Tendencia (hPa) Humedad (%)
2018-05-21 23:00:00 13.5 4 Este 14 Nordeste 0 919.3 1.9 79
2018-05-21 22:00:00 13.7 4 Este 21 Este 0 918.5 2.2 77
2018-05-21 21:00:00 15.8 9 Este 39 Este 0 918.1 2 70
2018-05-21 20:00:00 19.6 10 Sur 28 Sur 0 917.4 1.3 44
2018-05-21 19:00:00 21.9 8 Noroeste 23 Noroeste 0 916.3 -0.1 31
2018-05-21 18:00:00 23.2 9 Noroeste 25 Norte 0 916.1 -0.4 30
2018-05-21 17:00:00 22 8 Norte 26 Sudoeste 0 916.1 -1 30
2018-05-21 16:00:00 23.9 10 Sudoeste 26 Sudoeste 0 916.4 -1.2 28
2018-05-21 15:00:00 23.1 5 Sudoeste -- -- -- 916.5 -1.4 30
2018-05-21 14:00:00 23.1 10 Sudoeste 26 Sudoeste 0 917.1 -0.9 37
2018-05-21 13:00:00 21.5 8 Sudoeste 23 Sur 0 917.6 -0.5 41
2018-05-21 12:00:00 20 5 Sudoeste 21 Sudoeste 0 917.9 -0.3 50
2018-05-21 11:00:00 18.1 6 Sur 16 Sudoeste 0 918 -0.1 54
2018-05-21 10:00:00 15.8 3 Sur 10 Nordeste 0 918.1 0.4 61
2018-05-21 09:00:00 13.1 3 Este 10 Nordeste 0 918.2 0.4 73
2018-05-21 08:00:00 9.5 0 Calma 7 Nordeste 0 918.1 0.2 85
2018-05-21 07:00:00 6.5 3 Norte 8 Nordeste 0 917.7 -0.6 90
2018-05-21 06:00:00 7.2 3 Nordeste 10 Nordeste 0 917.8 -0.9 86
2018-05-21 05:00:00 8.2 4 Nordeste 16 Nordeste 0 917.9 -1.2 82
2018-05-21 04:00:00 8.6 6 Nordeste 15 Nordeste 0 918.3 -1 82
2018-05-21 03:00:00 9.5 7 Nordeste 15 Nordeste 0 918.7 -0.8 80
2018-05-21 02:00:00 10 5 Nordeste 17 Nordeste 0 919.1 -0.4 79
2018-05-21 01:00:00 10.7 5 Nordeste 18 Nordeste 0 919.3 0.7 79
2018-05-21 00:00:00 12.1 5 Nordeste 21 Nordeste 0 919.5 1.4 74
2018-05-20 23:00:00 13.7 8 Nordeste 22 Nordeste 0 919.5 1.6 68
2018-05-20 22:00:00 15.6 7 Nordeste 26 Este 0 918.6 0.7 53
2018-05-20 21:00:00 18.4 6 Nordeste 14 Este 0 918.1 -0.1 36
2018-05-20 20:00:00 21.1 6 Sudeste 17 Sudeste 0 917.9 -0.8 21
2018-05-20 19:00:00 22.8 7 Este 23 Nordeste 0 917.9 -1.5 17
2018-05-20 18:00:00 22.9 10 Este 22 Sur 0 918.2 -1.9 17
2018-05-20 17:00:00 22.2 9 Este 27 Nordeste 0 918.7 -2.1 22
2018-05-20 16:00:00 22.4 9 Este 31 Nordeste 0 919.4 -2.1 20
2018-05-20 15:00:00 21.4 9 Este 26 Sudeste 0 920.1 -1.8 21
2018-05-20 14:00:00 20.3 9 Este 32 Este 0 920.8 -1.5 20
2018-05-20 13:00:00 19.4 9 Este 23 Nordeste 0 921.5 -1.2 27
2018-05-20 12:00:00 17.7 9 Nordeste 23 Nordeste 0 921.9 -0.8 31
2018-05-20 11:00:00 16.2 9 Nordeste 27 Este 0 922.3 -0.3 38
2018-05-20 10:00:00 14.1 7 Este 18 Este 0 922.7 0.3 43
2018-05-20 09:00:00 10.5 8 Nordeste 15 Nordeste 0 922.7 0.2 67
2018-05-20 08:00:00 7.2 3 Nordeste 12 Nordeste 0 922.6 0 82
2018-05-20 07:00:00 5.6 7 Nordeste 18 Norte 0 922.4 -0.4 85
2018-05-20 06:00:00 5.6 7 Nordeste 14 Nordeste 0 922.5 -1 86
2018-05-20 05:00:00 5.7 6 Nordeste 13 Nordeste 0 922.6 -1.2 84
2018-05-20 04:00:00 7.3 8 Nordeste 19 Nordeste 0 922.8 -1.3 80
2018-05-20 03:00:00 7.6 6 Nordeste 21 Nordeste 0 923.5 -0.5 83
2018-05-20 02:00:00 8.9 6 Nordeste 17 Nordeste 0 923.8 0.3 78
2018-05-20 01:00:00 9.7 4 Nordeste 17 Este 0 924.1 1.4 79
2018-05-20 00:00:00 11.6 5 Este 29 Nordeste 0 924 1.6 73
2018-05-19 23:00:00 12.5 9 Nordeste 25 Nordeste 0 923.5 1.3 66
2018-05-19 22:00:00 14.5 10 Nordeste 22 Nordeste 0 922.7 0.6 59
2018-05-19 21:00:00 17.1 9 Nordeste 21 Nordeste 0 922.4 0.1 48
2018-05-19 20:00:00 18.7 9 Nordeste 28 Nordeste 0 922.2 -0.3 44
2018-05-19 19:00:00 21.1 9 Este 24 Nordeste 0 922.1 -0.8 39
2018-05-19 18:00:00 20.7 10 Nordeste 28 Nordeste 0 922.3 -1.1 37
2018-05-19 17:00:00 22.2 11 Nordeste 30 Nordeste 0 922.5 -1.4 31
2018-05-19 16:00:00 22.8 9 Este 24 Nordeste 0 922.9 -1.5 28
2018-05-19 15:00:00 21 10 Nordeste 26 Nordeste 0 923.4 -1.2 37
2018-05-19 14:00:00 21.5 11 Nordeste 28 Sudeste 0 923.9 -0.8 34
2018-05-19 13:00:00 19.6 13 Nordeste 34 Nordeste 0 924.4 -0.6 42
2018-05-19 12:00:00 19 9 Nordeste 27 Sudeste 0 924.6 -0.2 50
2018-05-19 11:00:00 17.9 9 Este 26 Este 0 924.7 0.1 56
2018-05-19 10:00:00 15.7 12 Nordeste 30 Nordeste 0 925 0.6 62
2018-05-19 09:00:00 13.2 10 Nordeste 24 Nordeste 0 924.8 0.7 72
2018-05-19 08:00:00 10.3 7 Nordeste 22 Nordeste 0 924.6 0.5 81
2018-05-19 07:00:00 9.2 11 Norte 24 Nordeste 0 924.4 0.4 81
2018-05-19 06:00:00 9 10 Nordeste 23 Nordeste 0 924.1 -0.3 82
2018-05-19 05:00:00 8.8 9 Nordeste 18 Nordeste 0 924.1 -0.5 83
2018-05-19 04:00:00 9 6 Nordeste 19 Norte 0 924 -0.6 84
2018-05-19 03:00:00 9.9 8 Nordeste 22 Nordeste 0 924.4 -0.2 83
2018-05-19 02:00:00 10.5 9 Nordeste 24 Nordeste 0 924.6 -0.2 83
2018-05-19 01:00:00 11 10 Nordeste 22 Nordeste 0 924.6 0.7 83
2018-05-19 00:00:00 11.2 9 Nordeste 23 Nordeste 0 924.6 1.4 82
2018-05-18 23:00:00 12.5 11 Nordeste 21 Nordeste 0 924.8 2.3 76
2018-05-18 22:00:00 14.1 8 Nordeste 26 Nordeste 0 923.9 1.3 65
2018-05-18 21:00:00 16.5 10 Nordeste 30 Nordeste 0 923.2 0.6 54
2018-05-18 20:00:00 18.5 14 Nordeste 29 Nordeste 0 922.5 0.2 47
2018-05-18 19:00:00 20 13 Nordeste 32 Este 0 922.6 0.1 42
2018-05-18 18:00:00 20.9 12 Este 35 Nordeste 0 922.6 -0.1 39
2018-05-18 17:00:00 20.8 14 Nordeste 48 Nordeste 0 922.3 -0.9 41
2018-05-18 16:00:00 21.4 12 Este 33 Nordeste 0 922.5 -1.1 38
2018-05-18 15:00:00 19.9 11 Nordeste 32 Nordeste 0 922.7 -1 42
2018-05-18 14:00:00 19.7 12 Nordeste 33 Este 0 923.2 -0.4 45
2018-05-18 13:00:00 18.3 16 Nordeste 38 Nordeste 0 923.6 0 49
2018-05-18 12:00:00 18 12 Nordeste 32 Nordeste 0 923.7 0.3 50
2018-05-18 11:00:00 16.2 13 Nordeste 36 Nordeste 0 923.6 0.3 55
2018-05-18 10:00:00 12.8 11 Nordeste 28 Nordeste 0 923.6 0.7 70
2018-05-18 09:00:00 11.1 9 Nordeste 54 Este 0 923.4 1.1 77
2018-05-18 08:00:00 9.4 9 Nordeste 20 Este 0 923.3 0.8 84
2018-05-18 07:00:00 8.8 5 Nordeste 14 Nordeste 0 922.9 0.4 86
2018-05-18 06:00:00 9 7 Nordeste 18 Nordeste 0 922.3 -0.2 85
2018-05-18 05:00:00 9.4 6 Nordeste 18 Nordeste 0 922.5 -0.3 85
2018-05-18 04:00:00 10.6 9 Nordeste 28 Nordeste 0 922.5 -0.6 82
2018-05-18 03:00:00 11.3 10 Nordeste 24 Nordeste 0 922.5 -1.3 79
2018-05-18 02:00:00 11.7 10 Nordeste 24 Nordeste 0 922.8 -1.1 78
2018-05-18 01:00:00 12.1 11 Nordeste 26 Nordeste 0 923.1 -0.8 76
2018-05-18 00:00:00 12 3 Nordeste 11 Nordeste 0 923.8 1.3 74
2018-05-17 23:00:00 12.3 4 Sudoeste 11 Sur 0 923.9 2.7 74
2018-05-17 22:00:00 13.6 4 Sur 35 Nordeste 0 923.9 2.9 65
2018-05-17 21:00:00 14.2 15 Nordeste 38 Nordeste 0 922.5 2.2 61
2018-05-17 20:00:00 15.8 19 Nordeste 41 Nordeste 0 921.2 0.7 57
2018-05-17 19:00:00 18.4 15 Nordeste 41 Nordeste 0 921 0.1 47
2018-05-17 18:00:00 20.8 16 Nordeste 39 Nordeste 0 920.3 -1.1 39
2018-05-17 17:00:00 21.1 13 Este 34 Este 0 920.5 -1.3 33
2018-05-17 16:00:00 22.1 10 Este 35 Nordeste 0 920.9 -1.3 32
2018-05-17 15:00:00 21.8 12 Este 32 Nordeste 0 921.4 -1 32
2018-05-17 14:00:00 20.5 10 Este 33 Sudeste 0 921.8 -0.5 36
2018-05-17 13:00:00 20.1 12 Este 31 Este 0 922.2 -0.2 35
2018-05-17 12:00:00 18.4 10 Este 32 Este 0 922.4 0.1 40
2018-05-17 11:00:00 17 13 Este 35 Nordeste 0 922.3 -0.2 47
2018-05-17 10:00:00 14.3 15 Nordeste 31 Nordeste 0 922.4 0.3 58
2018-05-17 09:00:00 12 12 Nordeste 25 Nordeste 0 922.3 0.3 70
2018-05-17 08:00:00 9.6 10 Nordeste 22 Nordeste 0 922.5 0.3 78
2018-05-17 07:00:00 8.4 11 Nordeste 26 Nordeste 0 922.1 -0.4 82
2018-05-17 06:00:00 8.4 12 Nordeste 27 Nordeste 0 922 -1 82
2018-05-17 05:00:00 8.2 12 Nordeste 25 Nordeste 0 922.2 -1.2 85
2018-05-17 04:00:00 8.1 10 Nordeste 24 Nordeste 0 922.5 -1.3 86
2018-05-17 03:00:00 8.5 11 Nordeste 27 Nordeste 0 923 -0.4 86
2018-05-17 02:00:00 8.6 13 Nordeste 26 Norte 0 923.4 0.3 86
2018-05-17 01:00:00 8.8 8 Nordeste 23 Nordeste 0 923.8 1.3 85
2018-05-17 00:00:00 9.6 9 Nordeste 26 Nordeste 0 923.4 1.3 83
2018-05-16 23:00:00 10.9 13 Nordeste 31 Nordeste 0 923.1 1.3 78
2018-05-16 22:00:00 12.6 9 Nordeste 31 Nordeste 0 922.5 0.5 69
2018-05-16 21:00:00 15.4 10 Nordeste 36 Este 0 922.1 0 57
2018-05-16 20:00:00 17.8 13 Nordeste 32 Nordeste 0 921.8 -0.4 46
2018-05-16 19:00:00 20.4 11 Este 40 Nordeste 0 922 -0.8 37
2018-05-16 18:00:00 20.6 12 Nordeste 36 Nordeste 0 922.1 -1.4 32
2018-05-16 17:00:00 20.3 17 Nordeste 33 Nordeste 0 922.2 -1.6 38
2018-05-16 16:00:00 20.7 12 Nordeste 33 Nordeste 0 922.8 -1.4 38
2018-05-16 15:00:00 20.1 12 Nordeste 33 Nordeste 0 923.5 -1 41
2018-05-16 14:00:00 19.4 11 Este 31 Nordeste 0 923.8 -0.7 42
2018-05-16 13:00:00 17.4 15 Nordeste 34 Nordeste 0 924.2 -0.5 46
2018-05-16 12:00:00 16.8 10 Nordeste 35 Nordeste 0 924.5 -0.5 48
2018-05-16 11:00:00 14.4 12 Nordeste 35 Nordeste 0 924.5 -0.4 53
2018-05-16 10:00:00 11.8 13 Nordeste 27 Norte 0 924.7 -0.3 62
2018-05-16 09:00:00 8.5 5 Nordeste 16 Nordeste 0 925 0 78
2018-05-16 08:00:00 4.5 4 Nordeste 9 Nordeste 0 924.9 -0.2 91
2018-05-16 07:00:00 2.3 2 Sudeste 7 Nordeste 0 925 -0.4 92
2018-05-16 06:00:00 3.1 4 Nordeste 12 Nordeste 0 925 -0.6 87
2018-05-16 05:00:00 3.6 3 Norte 10 Nordeste 0 925.1 -1 87
2018-05-16 04:00:00 4.4 3 Este 14 Nordeste 0 925.4 -0.8 84
2018-05-16 03:00:00 5 6 Nordeste 23 Nordeste 0 925.6 -0.8 79
2018-05-16 02:00:00 4.9 5 Nordeste 14 Este 0 926.1 0.1 70
2018-05-16 01:00:00 6.3 6 Nordeste 18 Nordeste 0 926.2 0.6 59
2018-05-16 00:00:00 7.4 4 Nordeste 24 Este 0 926.4 1.3 51
2018-05-15 23:00:00 9.6 10 Este 25 Nordeste 0 926 1.3 40
2018-05-15 22:00:00 11 9 Este 22 Nordeste 0 925.6 1 39
2018-05-15 21:00:00 13 10 Este 35 Nordeste 0 925.1 0.5 32
2018-05-15 20:00:00 15.3 13 Nordeste 36 Nordeste 0 924.7 -0.1 29
2018-05-15 19:00:00 17.9 12 Este 39 Este 0 924.6 -0.6 27
2018-05-15 18:00:00 18.5 15 Este 36 Este 0 924.6 -1 29
2018-05-15 17:00:00 19.2 15 Nordeste 36 Nordeste 0 924.8 -1.2 30
2018-05-15 16:00:00 19.8 11 Este 31 Nordeste 0 925.2 -1.2 30
2018-05-15 15:00:00 18.7 12 Nordeste 28 Nordeste 0 925.6 -1.1 28
2018-05-15 14:00:00 18.2 10 Nordeste 33 Nordeste 0 926 -1.2 26
2018-05-15 13:00:00 16.7 13 Nordeste 32 Nordeste 0 926.4 -1 26
2018-05-15 12:00:00 14.9 8 Nordeste 23 Nordeste 0 926.7 -0.9 32
2018-05-15 11:00:00 12.4 5 Nordeste 16 Nordeste 0 927.2 -0.8 42
2018-05-15 10:00:00 9.4 8 Nordeste 16 Norte 0 927.4 -0.4 55
2018-05-15 09:00:00 6.4 4 Norte 9 Noroeste 0 927.6 0 70
2018-05-15 08:00:00 2.2 2 Sur 14 Sudoeste 0 928 0.5 94
2018-05-15 07:00:00 0.1 3 Sudoeste 7 Sudoeste 0 927.8 0.3 93
2018-05-15 06:00:00 0.8 3 Norte 15 Nordeste 0 927.6 0.1 90
2018-05-15 05:00:00 1.4 5 Norte 8 Norte 0 927.5 -0.1 88
2018-05-15 04:00:00 1.8 3 Noroeste 12 Nordeste 0 927.5 -0.4 84
2018-05-15 03:00:00 2.7 3 Sudeste 11 Sudeste 0 927.5 -0.3 81
2018-05-15 02:00:00 3.6 3 Norte 6 Este 0 927.6 -0.1 80
2018-05-15 01:00:00 5 2 Nordeste 14 Sudeste 0 927.9 0.9 75
2018-05-15 00:00:00 6.3 5 Este 18 Este 0 927.8 1.3 70
2018-05-14 23:00:00 7.7 8 Este 26 Este 0 927.7 1.4 64
2018-05-14 22:00:00 8.9 6 Este 25 Este 0 927 1 57
2018-05-14 21:00:00 11.6 9 Este 23 Sudeste 0 926.5 0.8 48
2018-05-14 20:00:00 13.8 10 Este 24 Nordeste 0 926.3 0.3 42
2018-05-14 19:00:00 15.8 11 Nordeste 23 Este 0 926 -0.1 33
2018-05-14 18:00:00 16.6 5 Nordeste 28 Norte 0 925.7 -0.5 32
2018-05-14 17:00:00 16.4 12 Nordeste 31 Nordeste 0 926 -0.1 35
2018-05-14 16:00:00 15.7 10 Nordeste 28 Nordeste 0 926.1 -0.2 40
2018-05-14 15:00:00 14.9 6 Este 21 Noroeste 0 926.2 0.3 43
2018-05-14 14:00:00 14.1 3 Sudeste 21 Noroeste 0 926.1 0.1 51
2018-05-14 13:00:00 12.9 7 Norte 22 Noroeste 0 926.3 0.7 57
2018-05-14 12:00:00 13.3 7 Norte 20 Noroeste 0 925.9 0.2 57
2018-05-14 11:00:00 10.7 5 Nordeste 12 Norte 0 926 0.5 73
2018-05-14 10:00:00 9.1 5 Norte 13 Norte 0 925.6 0.4 74
2018-05-14 09:00:00 7.3 5 Nordeste 10 Nordeste 0 925.7 0.5 82
2018-05-14 08:00:00 6.3 4 Nordeste 9 Nordeste 0 925.5 0.2 92
2018-05-14 07:00:00 6 3 Este 5 Sudeste 0.4 925.2 -0.2 88
2018-05-14 06:00:00 6.1 2 Nordeste 5 Sudeste 0 925.2 -0.6 86
2018-05-14 05:00:00 6.3 2 Este 6 Sudeste 0 925.3 -0.8 81
2018-05-14 04:00:00 6.1 0 Calma 6 Noroeste 0 925.4 -1.1 79
2018-05-14 03:00:00 6.2 3 Noroeste 9 Norte 0 925.8 -0.7 77
2018-05-14 02:00:00 5.9 0 Calma 10 Noroeste 0 926.1 -0.3 78
2018-05-14 01:00:00 5.7 3 Noroeste 7 Noroeste 0 926.5 0.4 78
2018-05-11 20:00:00 18.7 4 Sudoeste 16 Sudoeste 0 920.5 -0.8 49
2018-05-11 19:00:00 19.4 7 Sudoeste 24 Sudoeste 0 920.7 -1.4 44
2018-05-11 18:00:00 20.4 10 Sudoeste 31 Sudoeste 0 921 -1.1 36
2018-05-11 17:00:00 21 11 Sudoeste 35 Sudoeste 0 921.3 -1.1 37
2018-05-11 16:00:00 21.2 10 Sudoeste 33 Sudoeste 0 922.1 -0.6 38
2018-05-11 15:00:00 21.4 12 Sudoeste 40 Sudoeste 0 922.1 -0.7 43
2018-05-11 14:00:00 20.8 9 Sudoeste 26 Oeste 0 922.4 -0.3 41
2018-05-11 13:00:00 19.5 8 Sur 19 Sur 0 922.7 -0.3 41
2018-05-11 12:00:00 17.2 6 Sudoeste 15 Sudoeste 0 922.8 0 40
2018-05-11 11:00:00 15.2 3 Sudeste 9 Este 0 922.7 0.1 42
2018-05-11 10:00:00 11.7 3 Este 8 Este 0 923 0.7 63
2018-05-11 09:00:00 8.6 4 Sudeste 17 Noroeste 0 922.8 0.3 76
2018-05-11 08:00:00 3.5 0 Calma 4 Norte 0 922.6 0.3 97
2018-05-11 07:00:00 1.1 2 Norte 4 Norte 0 922.3 -0.3 96
2018-05-11 06:00:00 1.4 0 Calma 4 Norte 0 922.5 -0.3 95
2018-05-11 05:00:00 1.9 0 Calma 4 Nordeste 0 922.3 -1.4 94
2018-05-11 04:00:00 2.4 0 Calma 5 Este 0 922.6 -1.2 94
2018-05-11 03:00:00 3.2 2 Nordeste 5 Norte 0 922.8 -1 93
2018-05-11 02:00:00 3.8 3 Noroeste 6 Norte 0 923.7 -0.4 91
2018-05-11 01:00:00 4.4 0 Calma 8 Norte 0 923.8 0.2 81
2018-05-11 00:00:00 5.8 3 Norte 7 Noroeste 0 923.8 0.7 80
2018-05-10 23:00:00 7.2 3 Norte 8 Nordeste 0 924.1 1.2 74
2018-05-10 22:00:00 9.5 3 Nordeste 10 Este 0 923.6 0.4 63
2018-05-10 21:00:00 12.9 4 Nordeste 20 Nordeste 0 923.1 -0.2 47
2018-05-10 20:00:00 14.9 9 Nordeste 24 Nordeste 0 922.9 -0.9 40
2018-05-10 19:00:00 16.5 10 Este 27 Nordeste 0 923.2 -1.1 34
2018-05-10 18:00:00 16.6 11 Nordeste 35 Nordeste 0 923.3 -1.2 36
2018-05-10 17:00:00 16 12 Nordeste 33 Este 0 923.8 -0.9 36
2018-05-10 16:00:00 15.4 14 Nordeste 32 Nordeste 0 924.3 -0.4 43
2018-05-10 15:00:00 15.1 14 Nordeste 37 Nordeste 0 924.5 -0.2 41
2018-05-10 14:00:00 14.5 16 Nordeste 35 Este 0 924.7 0.2 46
2018-05-10 13:00:00 14.6 12 Nordeste 36 Nordeste 0 924.7 0.7 47
2018-05-10 12:00:00 14.1 11 Nordeste 28 Nordeste 0 924.7 0.8 55
2018-05-10 11:00:00 11.7 10 Nordeste 30 Nordeste 0 924.5 1.1 60
2018-05-10 10:00:00 11.8 10 Nordeste 25 Nordeste 0 924 1 66
2018-05-10 09:00:00 8.7 5 Nordeste 12 Nordeste 0 923.9 1.5 79
2018-05-10 08:00:00 5.6 2 Noroeste 5 Noroeste 0 923.4 1.3 91
2018-05-10 07:00:00 4.5 3 Norte 10 Nordeste 0 923 1.1 88
2018-05-10 06:00:00 5 2 Nordeste 14 Este 0 922.4 1 85
2018-05-10 05:00:00 6 3 Nordeste 8 Nordeste 0 922.1 1.1 85
2018-05-10 04:00:00 7.8 3 Nordeste 12 Este 0 921.9 0.9 82
2018-05-10 03:00:00 9.1 5 Este 18 Este 0 921.4 1.1 82
2018-05-10 02:00:00 9.3 5 Este 26 Nordeste 0 921 0.4 81
2018-05-10 01:00:00 10 8 Este 21 Este 0 921 2 78
2018-05-10 00:00:00 10.6 7 Nordeste 20 Nordeste 0 920.3 1.8 77
2018-05-09 23:00:00 11.5 10 Nordeste 25 Nordeste 0 920.6 2.7 76
2018-05-09 22:00:00 12.4 12 Nordeste 30 Nordeste 0 919 1.6 75
2018-05-09 21:00:00 14 14 Nordeste 31 Nordeste 0 918.5 1.1 70
2018-05-09 20:00:00 17.2 12 Nordeste 27 Nordeste 0 917.9 0.6 62
2018-05-09 19:00:00 21 5 Sudoeste 15 Sudoeste 0 917.4 -0.2 39
2018-05-09 18:00:00 21.5 7 Sudoeste 19 Sudoeste 0 917.4 -0.8 40
2018-05-09 17:00:00 21.2 5 Sudoeste 18 Sudoeste 0 917.3 -1.6 39
2018-05-09 16:00:00 21.9 7 Sur 23 Sudoeste 0 917.6 -1.8 39
2018-05-09 15:00:00 20.9 5 Sudoeste 21 Sur 0 918.2 -1.5 42
2018-05-09 14:00:00 19.6 4 Nordeste 15 Sudoeste 0 918.9 -1 45
2018-05-09 13:00:00 18.5 5 Sudoeste 15 Sudeste 0 919.4 -0.6 47
2018-05-09 12:00:00 16.9 6 Nordeste 16 Sudeste 0 919.7 -0.6 53
2018-05-09 11:00:00 14.7 6 Nordeste 19 Este 0 919.9 -0.5 68
2018-05-09 10:00:00 12.4 6 Este 16 Nordeste 0 920 0 75
2018-05-09 09:00:00 9.5 6 Nordeste 13 Nordeste 0 920.3 0.3 84
2018-05-09 08:00:00 5.1 0 Calma 4 Noroeste 0 920.4 0.1 96
2018-05-09 07:00:00 3.9 0 Calma 6 Noroeste 0 920 -0.6 96
2018-05-09 06:00:00 4.6 3 Norte 6 Noroeste 0 920 -0.7 94
2018-05-09 05:00:00 5.6 2 Nordeste 17 Nordeste 0 920.3 -0.5 92
2018-05-09 04:00:00 6.6 7 Norte 14 Norte 0 920.6 -0.2 91
2018-05-09 03:00:00 7.2 5 Nordeste 14 Norte 0 920.7 -0.3 87
2018-05-09 02:00:00 7.9 6 Nordeste 19 Nordeste 0 920.8 -0.3 86
2018-05-09 01:00:00 8.5 5 Nordeste 17 Nordeste 0 920.8 -0.1 86
2018-05-09 00:00:00 9.6 9 Este 21 Este 0 921 0.4 85
2018-05-08 23:00:00 10.3 8 Este 25 Este 0 921.1 0.9 81
2018-05-08 22:00:00 12.1 10 Este 25 Este 0 920.9 1.1 74
2018-05-08 21:00:00 13.6 8 Este 25 Este 0 920.6 0.9 70
2018-05-08 20:00:00 15.6 10 Este 37 Nordeste 0 920.2 0.3 64
2018-05-08 19:00:00 16.9 17 Nordeste 37 Nordeste 0 919.8 0.2 61
2018-05-08 18:00:00 16.3 14 Nordeste 31 Nordeste 0 919.7 0.2 71
2018-05-08 17:00:00 19 15 Nordeste 33 Nordeste 0 919.9 -0.2 54
2018-05-08 16:00:00 22.6 13 Este 28 Sudeste 0 919.6 -1.1 43
2018-05-08 15:00:00 22.4 12 Este 29 Sudeste 0 919.5 -1.3 47
2018-05-08 14:00:00 22.3 9 Sudeste 22 Este 0 920.1 -0.9 49
2018-05-08 13:00:00 21.2 9 Sudeste 22 Sudeste 0 920.7 -0.3 54
2018-05-08 12:00:00 19.8 7 Este 21 Sudeste 0 920.8 -0.2 63
2018-05-08 11:00:00 17.9 7 Nordeste 19 Este 0 921 0.3 64
2018-05-08 10:00:00 15.9 8 Este 23 Este 0 921 0.5 69
2018-05-08 09:00:00 12.6 6 Nordeste 12 Nordeste 0 921 0.4 75
2018-05-08 08:00:00 8.4 0 Calma 14 Este 0 920.7 -0.1 95
2018-05-08 07:00:00 7.2 2 Noroeste 5 Noroeste 0 920.5 -0.5 94
2018-05-08 06:00:00 8.1 0 Calma 9 Sudoeste 0 920.6 -0.5 91
2018-05-08 05:00:00 9 3 Sudoeste 13 Este 0 920.8 -0.8 87
2018-05-08 04:00:00 10.5 3 Norte 14 Este 0 921 -0.8 85
2018-05-08 03:00:00 11.7 8 Norte 17 Norte 0 921.1 -1 81
2018-05-08 02:00:00 10.9 4 Noroeste 6 Norte 0 921.6 -0.6 86
2018-05-08 01:00:00 12 4 Norte 7 Noroeste 0 921.8 -0.2 86
2018-05-08 00:00:00 13.1 0 Calma 6 Noroeste 0 922.1 1 78
2018-05-07 23:00:00 15.5 2 Norte 11 Sudoeste 0 922.2 2.2 73
2018-05-07 22:00:00 17.1 7 Sudeste 26 Sudeste 0 922 2.2 67
2018-05-07 21:00:00 19.9 7 Este 21 Sudeste 0 921.1 1.1 47
2018-05-07 20:00:00 22.2 3 Nordeste 21 Este 0 920 -0.3 42
2018-05-07 19:00:00 24.3 8 Nordeste 16 Nordeste 0 919.8 -1.3 31
2018-05-07 18:00:00 23.9 4 Este 21 Este 0 920 -1.9 32
2018-05-07 17:00:00 25.2 5 Nordeste 20 Nordeste 0 920.3 -2.2 30
2018-05-07 16:00:00 24.8 5 Norte 22 Sudeste 0 921.1 -1.8 31
2018-05-07 15:00:00 24.8 9 Sudeste 28 Este 0 921.9 -1.2 29
2018-05-07 14:00:00 23.8 8 Sudeste 19 Este 0 922.5 -0.7 33
2018-05-07 13:00:00 22.6 6 Este 17 Sudeste 0 922.9 -0.2 37
2018-05-07 12:00:00 21.6 6 Sudeste 16 Este 0 923.1 -0.1 45
2018-05-07 11:00:00 20.2 8 Sudeste 17 Este 0 923.2 0.2 49
2018-05-07 10:00:00 17.6 7 Nordeste 13 Nordeste 0 923.1 0.3 59
2018-05-07 09:00:00 14 5 Nordeste 13 Nordeste 0 923.2 0.4 76
2018-05-07 08:00:00 10.6 6 Nordeste 15 Nordeste 0 923 0.2 83
2018-05-07 07:00:00 9.3 3 Nordeste 10 Nordeste 0 922.8 0.1 85
2018-05-07 06:00:00 10 3 Norte 17 Nordeste 0 922.8 0 83
2018-05-07 05:00:00 11.6 6 Nordeste 17 Nordeste 0 922.8 -0.2 80
2018-05-07 04:00:00 12.3 9 Nordeste 21 Nordeste 0 922.7 -0.5 80
2018-05-07 03:00:00 12.7 9 Nordeste 21 Nordeste 0 922.8 -0.4 79
2018-05-07 02:00:00 12.8 7 Nordeste 16 Norte 0 923 0.2 81
2018-05-07 01:00:00 13 6 Nordeste 23 Nordeste 0 923.2 0.9 80
2018-05-07 00:00:00 13.4 6 Nordeste 15 Nordeste 0 923.2 1.5 71
2018-05-06 23:00:00 13.2 5 Nordeste 14 Nordeste 0 922.8 1.4 73
2018-05-06 22:00:00 15.3 0 Calma 10 Sudeste 0 922.3 1 64
2018-05-06 21:00:00 18.9 0 Calma 13 Oeste 0 921.7 0.2 49
2018-05-06 20:00:00 21.9 4 Nordeste 13 Nordeste 0 921.4 -0.3 33
2018-05-06 19:00:00 23.6 4 Nordeste 13 Nordeste 0 921.3 -1 30
2018-05-06 18:00:00 23.3 7 Nordeste 18 Nordeste 0 921.5 -1.3 32
2018-05-06 17:00:00 23.7 3 Nordeste 18 Sudeste 0 921.7 -1.4 31
2018-05-06 16:00:00 23.5 5 Sudeste 19 Sudeste 0 922.3 -1.3 31
2018-05-06 15:00:00 22.9 8 Este 19 Sudeste 0 922.8 -1.2 34
2018-05-06 14:00:00 21.9 9 Sudeste 20 Nordeste 0 923.1 -1.2 45
2018-05-06 13:00:00 20.1 8 Este 18 Sudeste 0 923.6 -0.8 51
2018-05-06 12:00:00 18.6 7 Este 21 Este 0 924 -0.3 54
2018-05-06 11:00:00 17.3 8 Este 24 Este 0 924.3 0.3 58
2018-05-06 10:00:00 13.4 8 Nordeste 21 Nordeste 0 924.4 0.6 69
2018-05-06 09:00:00 11 12 Nordeste 22 Nordeste 0 924.3 0.9 77
2018-05-06 08:00:00 8.9 7 Nordeste 18 Nordeste 0 924 0.4 85
2018-05-06 07:00:00 7.6 7 Nordeste 22 Nordeste 0 923.8 0.1 86
2018-05-06 06:00:00 7.6 9 Nordeste 22 Nordeste 0 923.4 -0.5 84
2018-05-06 05:00:00 8.3 11 Nordeste 23 Nordeste 0 923.6 -0.4 83
2018-05-06 04:00:00 8.7 8 Nordeste 22 Nordeste 0 923.7 -0.6 82
2018-05-06 03:00:00 9.2 11 Nordeste 30 Este 0 923.9 -0.3 80
2018-05-06 02:00:00 9.1 7 Nordeste 21 Nordeste 0 924 -0.1 82
2018-05-06 01:00:00 9.5 8 Nordeste 21 Nordeste 0 924.3 0.5 81
2018-05-06 00:00:00 10.5 9 Nordeste 30 Norte 0 924.2 0.9 78
2018-05-05 23:00:00 11.2 11 Nordeste 22 Nordeste 0 924.1 1 75
2018-05-05 22:00:00 12.2 10 Nordeste 33 Nordeste 0 923.8 1 70
2018-05-05 21:00:00 13.9 14 Nordeste 39 Nordeste 0 923.3 0.7 63
2018-05-05 20:00:00 15.7 17 Nordeste 40 Nordeste 0 923.1 0.3 56
2018-05-05 19:00:00 17.8 18 Nordeste 40 Nordeste 0 922.8 -0.1 47
2018-05-05 18:00:00 18.9 14 Nordeste 45 Nordeste 0 922.6 -0.4 45
2018-05-05 17:00:00 19.4 15 Nordeste 42 Nordeste 0 922.8 -0.5 42
2018-05-05 16:00:00 19.3 15 Este 41 Este 0 922.9 -0.7 44
2018-05-05 15:00:00 19 17 Este 45 Este 0 923 -1 43
2018-05-05 14:00:00 18.2 17 Nordeste 37 Norte 0 923.3 -0.9 46
2018-05-05 13:00:00 17.2 15 Este 35 Este 0 923.6 -0.9 47
2018-05-05 12:00:00 15.5 14 Nordeste 35 Este 0 924 -0.4 51
2018-05-05 11:00:00 13.8 12 Este 32 Este 0 924.2 0.1 56
2018-05-05 10:00:00 10.2 12 Nordeste 24 Nordeste 0 924.5 0.5 64
2018-05-05 09:00:00 7.4 10 Nordeste 26 Nordeste 0 924.4 0.5 71
2018-05-05 08:00:00 4.7 7 Nordeste 21 Nordeste 0 924.1 0.2 77
2018-05-05 07:00:00 4.3 11 Nordeste 24 Nordeste 0 924 -0.1 77
2018-05-05 06:00:00 4.9 8 Nordeste 30 Norte 0 923.9 -0.5 74
2018-05-05 05:00:00 4.2 4 Nordeste 18 Nordeste 0 923.9 -0.7 81
2018-05-05 04:00:00 4.4 6 Este 30 Nordeste 0 924.1 -0.8 82
2018-05-05 03:00:00 5 10 Nordeste 31 Nordeste 0 924.4 -0.5 80
2018-05-05 02:00:00 5.1 14 Nordeste 28 Nordeste 0 924.6 0 81
2018-05-05 01:00:00 5.1 6 Nordeste 29 Nordeste 0 924.9 0.8 79
2018-05-05 00:00:00 5.8 8 Este 42 Este 0 924.9 1.1 75
2018-05-04 23:00:00 6.9 15 Nordeste 42 Nordeste 0 924.6 1.1 70
2018-05-04 22:00:00 7.6 18 Nordeste 44 Nordeste 0 924.1 0.8 68
2018-05-04 21:00:00 8.8 15 Nordeste 46 Nordeste 0 923.8 0.4 63
2018-05-04 20:00:00 10.5 16 Nordeste 45 Nordeste 0 923.5 0.2 56
2018-05-04 19:00:00 12.5 17 Nordeste 47 Nordeste 0 923.3 -0.3 52
2018-05-04 18:00:00 12.5 21 Nordeste 49 Nordeste 0 923.4 -0.4 49
2018-05-04 17:00:00 12.8 21 Nordeste 49 Nordeste 0 923.3 -0.7 49
2018-05-04 16:00:00 12.7 21 Nordeste 55 Nordeste 0 923.6 -0.4 49
2018-05-04 15:00:00 12.5 22 Nordeste 45 Nordeste 0 923.8 -0.5 49
2018-05-04 14:00:00 12 20 Nordeste 51 Nordeste 0 924 -0.3 49
2018-05-04 13:00:00 11.2 19 Nordeste 51 Nordeste 0 924 -0.3 51
2018-05-04 12:00:00 9.2 18 Nordeste 44 Nordeste 0 924.3 0.2 55
2018-05-04 11:00:00 9.6 21 Nordeste 48 Nordeste 0 924.3 0.4 54
2018-05-04 10:00:00 7.3 20 Nordeste 45 Nordeste 0 924.3 0.7 64
2018-05-04 09:00:00 6.4 17 Nordeste 39 Nordeste 0 924.1 0.4 65
2018-05-04 08:00:00 4.7 14 Nordeste 33 Nordeste 0 923.9 0.3 78
2018-05-04 07:00:00 3.1 12 Norte 22 Nordeste 0 923.6 -0.4 74
2018-05-04 06:00:00 2.7 6 Nordeste 25 Nordeste 0 923.7 -0.8 80
2018-05-04 05:00:00 3.7 15 Nordeste 32 Nordeste 0 923.6 -1.1 78
2018-05-04 04:00:00 3.9 12 Nordeste 36 Nordeste 0 924 -0.9 76
2018-05-04 03:00:00 4.5 12 Nordeste 35 Nordeste 0 924.5 -0.3 71
2018-05-04 02:00:00 4.7 15 Nordeste 45 Nordeste 0 924.7 -0.1 71
2018-05-04 01:00:00 4.3 13 Nordeste 34 Nordeste 0 924.9 0.5 71
2018-05-04 00:00:00 4.8 16 Nordeste 35 Nordeste 0 924.8 1.3 69
2018-05-03 23:00:00 5.4 14 Nordeste 39 Nordeste 0 924.8 1.4 65
2018-05-03 22:00:00 6.1 12 Nordeste 30 Nordeste 0 924.4 1.3 64
2018-05-03 21:00:00 7.5 12 Nordeste 38 Nordeste 0 923.5 0.5 59
2018-05-03 20:00:00 9.2 15 Este 39 Este 0 923.4 0.4 55
2018-05-03 19:00:00 11.4 15 Este 42 Nordeste 0 923.1 0.2 45
2018-05-03 18:00:00 11.7 18 Nordeste 46 Nordeste 0 923 -0.2 50
2018-05-03 17:00:00 12.6 18 Nordeste 44 Nordeste 0 923 -0.5 50
2018-05-03 16:00:00 13.4 16 Nordeste 37 Nordeste 0 922.9 -1 47
2018-05-03 15:00:00 13.6 13 Nordeste 33 Nordeste 0 923.2 -0.8 45
2018-05-03 14:00:00 13.1 11 Este 24 Nordeste 0 923.5 -0.5 43
2018-05-03 13:00:00 12.1 13 Nordeste 31 Nordeste 0 923.9 0.1 44
2018-05-03 12:00:00 11.5 12 Nordeste 35 Norte 0 924 0.4 47
2018-05-03 11:00:00 9.4 12 Nordeste 24 Norte 0 924 0.7 60
2018-05-03 10:00:00 8.3 10 Nordeste 23 Nordeste 0 923.8 1.1 71
2018-05-03 09:00:00 6.8 8 Nordeste 19 Nordeste 0 923.6 1.1 82
2018-05-03 08:00:00 4.5 6 Nordeste 16 Norte 0 923.3 0.8 94
2018-05-03 07:00:00 4 3 Nordeste 6 Nordeste 0 922.7 0.4 96
2018-05-03 06:00:00 4.5 2 Nordeste 6 Nordeste 0 922.5 0.1 94
2018-05-03 05:00:00 6 3 Norte 9 Nordeste 0 922.5 0 96
2018-05-03 04:00:00 5 4 Norte 8 Noroeste 0 922.3 -0.1 95
2018-05-03 03:00:00 5.2 0 Calma 5 Noroeste 0 922.4 0.3 93
2018-05-03 02:00:00 6.2 3 Noroeste 6 Noroeste 0 922.5 0.6 92
2018-05-03 01:00:00 7.5 0 Calma 6 Este 0 922.4 1 86
2018-05-03 00:00:00 9.4 3 Noroeste 5 Sudoeste 0 922.1 1.1 83
2018-05-02 23:00:00 10.9 4 Noroeste 10 Oeste 0 921.9 1.4 78
2018-05-02 22:00:00 10.9 0 Calma 8 Sudoeste 0 921.4 1.1 76
2018-05-02 21:00:00 13.2 0 Calma 13 Noroeste 0 921 0.8 66
2018-05-02 20:00:00 14.3 2 Oeste 16 Sudoeste 0 920.5 0.5 59
2018-05-02 19:00:00 15.1 4 Oeste 19 Noroeste 0 920.3 0 56
2018-05-02 18:00:00 15.8 3 Oeste 19 Oeste 0 920.2 -0.2 53
2018-05-02 17:00:00 16.1 4 Oeste 18 Oeste 0 920 -0.5 52
2018-05-02 16:00:00 15.6 4 Oeste 22 Oeste 0 920.3 -0.1 50
2018-05-02 15:00:00 14 6 Sudoeste 27 Sudoeste 0 920.4 0.2 52
2018-05-02 14:00:00 12.8 5 Sudoeste 26 Oeste 0 920.5 0.2 53
2018-05-02 13:00:00 13.3 7 Oeste 33 Sudoeste 0 920.4 0.4 49
2018-05-02 12:00:00 12.1 8 Oeste 25 Sudoeste 0 920.2 0.5 49
2018-05-02 11:00:00 10.6 10 Sudoeste 21 Sudoeste 0 920.3 1.1 51
2018-05-02 10:00:00 8.1 7 Sudoeste 21 Sudoeste 0 920 1.2 67
2018-05-02 09:00:00 6.1 9 Sudoeste 17 Sudoeste 0 919.7 1.1 75
2018-05-02 08:00:00 5.4 3 Sudoeste 14 Oeste 0 919.2 0.4 78
2018-05-02 07:00:00 5.3 4 Sudoeste 18 Sudoeste 0 918.8 0.1 78
2018-05-02 06:00:00 5.6 5 Sudoeste 11 Sudoeste 0 918.6 -0.4 80
2018-05-02 05:00:00 5.9 3 Sudoeste 13 Sudoeste 0 918.8 -0.3 78
2018-05-02 04:00:00 5.8 3 Sudoeste 14 Sudoeste 0 918.7 -0.4 77
2018-05-02 03:00:00 6.3 5 Sudoeste 14 Sudoeste 0 919 -0.2 70
2018-05-02 02:00:00 6.5 7 Sudoeste 16 Sudoeste 0 919.1 -0.2 68
2018-05-02 01:00:00 6.7 9 Sudoeste 20 Sudoeste 0 919.1 -0.1 65
2018-05-02 00:00:00 6.4 8 Sudoeste 15 Sudoeste 0 919.2 0 67
2018-05-01 23:00:00 6.6 4 Sur 9 Sudoeste 0 919.3 0.1 67
2018-05-01 22:00:00 7 4 Sudoeste 9 Sur 0 919.2 -0.1 66
2018-05-01 21:00:00 9.5 5 Sudoeste 16 Sudoeste 0 919.2 -0.3 54
2018-05-01 20:00:00 11.3 6 Sudoeste 20 Sudoeste 0 919.2 -0.9 41
2018-05-01 19:00:00 13.2 7 Sudoeste 23 Sudoeste 0 919.3 -1.5 38
2018-05-01 18:00:00 13.4 9 Sudoeste 24 Sudoeste 0 919.5 -1.6 40
2018-05-01 17:00:00 12.4 8 Sudoeste 29 Sudoeste 0 920.1 -1.4 39
2018-05-01 16:00:00 13 10 Sur 22 Sudoeste 0 920.8 -1.1 43
2018-05-01 15:00:00 12.4 6 Sur 19 Sudoeste 0 921.1 -1.4 39
2018-05-01 14:00:00 11.5 6 Sudoeste 20 Sudoeste 0 921.5 -0.9 48
2018-05-01 13:00:00 10.2 5 Este 19 Sudoeste 0 921.9 -0.2 57
2018-05-01 12:00:00 8 6 Sur 14 Sur 0 922.5 0.5 61
2018-05-01 11:00:00 8.1 6 Sur 14 Nordeste 0 922.4 0.9 64
2018-05-01 10:00:00 5.4 5 Este 13 Nordeste 0 922.1 0.9 80
2018-05-01 09:00:00 1.4 3 Nordeste 12 Nordeste 0 922 0.9 98
2018-05-01 08:00:00 -0.6 0 Calma 4 Nordeste 0 921.5 0.1 98
2018-05-01 07:00:00 -0.9 0 Calma 4 Nordeste 0 921.2 -0.1 98
2018-05-01 06:00:00 -0.6 2 Nordeste 4 Norte 0 921.1 -0.5 98
2018-05-01 05:00:00 -0.6 0 Calma 4 Oeste 0 921.4 -0.5 97
2018-05-01 04:00:00 0 0 Calma 5 Noroeste 0 921.3 -0.7 96
2018-05-01 03:00:00 0.7 2 Noroeste 4 Noroeste 0 921.6 -0.2 96
2018-05-01 02:00:00 1.5 2 Norte 6 Noroeste 0 921.9 0.1 95
2018-05-01 01:00:00 2.8 4 Noroeste 5 Noroeste 0 922 0.6 95
2018-05-01 00:00:00 3 2 Oeste 6 Nordeste 0 921.8 1.4 93
2018-04-30 23:00:00 3.7 3 Nordeste 16 Nordeste 1.2 921.8 2 88
2018-04-30 22:00:00 3.9 4 Nordeste 20 Nordeste 0 921.4 1.9 85
2018-04-30 21:00:00 5.3 2 Este 12 Sudeste 0 920.4 1.7 81
2018-04-30 20:00:00 5.4 9 Este 20 Sudeste 0.4 919.8 1.3 81
2018-04-30 19:00:00 5.1 3 Este 26 Nordeste 2 919.5 0.4 82
2018-04-30 18:00:00 6.5 10 Nordeste 30 Este 0.8 918.7 -0.7 70
2018-04-30 17:00:00 9.6 4 Oeste 18 Sudoeste 0 918.5 -1 67
2018-04-30 16:00:00 7.9 5 Sudoeste 17 Sudoeste 0.2 919.1 -0.3 68
2018-04-30 15:00:00 5.9 6 Oeste 18 Sudoeste 0.6 919.4 0.4 80
2018-04-30 14:00:00 5.5 5 Oeste 14 Oeste 0.4 919.5 0.6 77
2018-04-30 13:00:00 5.5 4 Oeste 18 Oeste 0 919.4 0.6 76
2018-04-30 12:00:00 6.4 6 Sudoeste 20 Sudoeste 0 919 0.6 70
2018-04-30 11:00:00 5.4 9 Sudoeste 22 Sudoeste 0 918.9 0.7 73
2018-04-30 10:00:00 3.6 6 Sudoeste 22 Sudoeste 0 918.8 1 86
2018-04-30 09:00:00 1.6 6 Sudoeste 19 Sudoeste 0 918.4 0.7 97
2018-04-30 08:00:00 0.6 7 Sudoeste 15 Sur 0 918.2 0.7 97
2018-04-30 07:00:00 0.6 4 Oeste 17 Sudoeste 0 917.8 0.1 97
2018-04-30 06:00:00 0.6 4 Oeste 19 Sudoeste 0 917.7 -0.1 97
2018-04-30 05:00:00 0.2 6 Sudoeste 22 Sudoeste 0 917.5 -0.5 96
2018-04-30 04:00:00 0.5 6 Sudoeste 17 Sudoeste 0 917.7 0.1 95
2018-04-30 03:00:00 1 4 Sudoeste 20 Sudoeste 0 917.8 0.5 94
2018-04-30 02:00:00 1.6 8 Sudoeste 20 Sur 0 918 1 90
2018-04-30 01:00:00 2.6 6 Sudoeste 22 Sudoeste 0 917.6 1.4 87
2018-04-30 00:00:00 3.7 7 Sudoeste 18 Sudoeste 0 917.3 2 87
2018-04-29 23:00:00 4.1 2 Oeste 20 Oeste 0 917 2.3 84
2018-04-29 22:00:00 4.1 8 Sudoeste 16 Sudoeste 0 916.2 2.2 87
2018-04-29 21:00:00 5 3 Oeste 23 Sudoeste 1.2 915.3 2.3 84
2018-04-29 20:00:00 6.5 5 Sudoeste 24 Sudoeste 0 914.7 1.3 75
2018-04-29 19:00:00 7.9 13 Sudoeste 42 Sudoeste 0 914 1.1 69
2018-04-29 18:00:00 10.3 5 Oeste 18 Noroeste 0 913 0.4 63
2018-04-29 17:00:00 6.2 5 Sudoeste 30 Sudoeste 0.4 913.4 0.6 78
2018-04-29 16:00:00 7.9 3 Sudoeste 23 Oeste 0.8 912.9 0.1 73
2018-04-29 15:00:00 9.8 8 Sudoeste 29 Sudoeste 0 912.6 0.1 66
2018-04-29 14:00:00 8.9 9 Sudoeste 39 Sudoeste 0 912.8 0.7 72
2018-04-29 13:00:00 10.8 5 Sudoeste 25 Oeste 0 912.8 0.9 59
2018-04-29 12:00:00 9.3 4 Sudoeste 21 Oeste 0 912.5 1 65
2018-04-29 11:00:00 9.9 6 Oeste 19 Sudoeste 0 912.1 1 62
2018-04-29 10:00:00 7.2 2 Noroeste 9 Norte 0 911.9 1 76
2018-04-29 09:00:00 5.2 5 Noroeste 10 Norte 0 911.5 0.6 86
2018-04-29 08:00:00 3.5 3 Noroeste 5 Noroeste 0 911.1 0 96
2018-04-29 07:00:00 2.6 0 Calma 3 Oeste 0 910.9 -0.3 96
2018-04-29 06:00:00 1.9 0 Calma 8 Sudoeste 0 910.9 -0.8 95
2018-04-29 05:00:00 1.7 0 Calma 15 Nordeste 0 911.1 -1.2 93
2018-04-29 04:00:00 2.7 0 Calma 14 Nordeste 0 911.2 -1.5 91
2018-04-29 03:00:00 3.1 5 Nordeste 16 Nordeste 0 911.7 -1.1 91
2018-04-29 02:00:00 2.8 0 Calma 7 Noroeste 0 912.3 -0.4 95
2018-04-29 01:00:00 3.3 0 Calma 8 Noroeste 0 912.7 0.1 93
2018-04-29 00:00:00 3.9 2 Oeste 14 Sudoeste 0 912.8 0.3 88
2018-04-28 23:00:00 5 2 Nordeste 6 Nordeste 0 912.7 0.3 81
2018-04-28 22:00:00 7.1 3 Norte 13 Este 0 912.6 -0.1 76
2018-04-28 21:00:00 8.9 7 Noroeste 23 Norte 0 912.5 -0.4 66
2018-04-28 20:00:00 11 8 Noroeste 24 Sudoeste 0 912.4 -0.6 60
2018-04-28 19:00:00 12 13 Sudoeste 37 Sudoeste 0 912.7 -0.4 56
2018-04-28 18:00:00 13.2 8 Oeste 30 Oeste 0 912.9 -0.8 45
2018-04-28 17:00:00 13.3 6 Oeste 33 Sudoeste 0 913 -1.2 57
2018-04-28 16:00:00 15.8 13 Sudoeste 32 Sudoeste 0 913.1 -1.6 38
2018-04-28 15:00:00 15.7 9 Sur 32 Sur 0 913.7 -1.8 37
2018-04-28 14:00:00 13.2 6 Sur 33 Este 0 914.2 -1.1 51
2018-04-28 13:00:00 13 7 Este 20 Norte 0 914.7 -0.8 55
2018-04-28 12:00:00 9.6 9 Nordeste 24 Nordeste 0 915.5 -0.3 74
2018-04-28 11:00:00 8.4 9 Nordeste 29 Nordeste 0 915.3 -0.5 76
2018-04-28 10:00:00 7.5 12 Nordeste 28 Este 0 915.5 -0.1 78
2018-04-28 09:00:00 6.8 11 Nordeste 30 Nordeste 0 915.8 0.2 81
2018-04-28 08:00:00 6.1 11 Nordeste 27 Nordeste 0 915.8 -0.8 83
2018-04-28 07:00:00 5.4 11 Nordeste 25 Este 0 915.6 -1.3 87
2018-04-28 06:00:00 4.8 6 Nordeste 25 Nordeste 0 915.6 -2.2 86
2018-04-28 05:00:00 6 12 Nordeste 32 Nordeste 0 916.6 -1.6 81
2018-04-28 04:00:00 6.2 12 Nordeste 32 Nordeste 0 916.9 -1.5 81
2018-04-28 03:00:00 6.3 10 Nordeste 29 Nordeste 0 917.8 -1.2 80
2018-04-28 02:00:00 6.3 13 Este 31 Nordeste 0 918.2 -1 81
2018-04-28 01:00:00 6 11 Nordeste 30 Nordeste 0 918.4 -0.9 82
2018-04-28 00:00:00 6.8 11 Este 32 Nordeste 0 919 0.7 80
2018-04-27 23:00:00 6.7 13 Este 32 Este 0 919.2 1.7 82
2018-04-27 22:00:00 7.9 12 Este 27 Este 0 919.3 1.6 77
2018-04-27 21:00:00 12.3 8 Este 25 Este 0 918.3 0.4 63
2018-04-27 20:00:00 16.3 12 Sudoeste 32 Sudoeste 0 917.5 -0.7 39
2018-04-27 19:00:00 18 11 Sudoeste 29 Sudoeste 0 917.7 -1 35
2018-04-27 18:00:00 20.1 6 Oeste 24 Sudoeste 0 917.9 -1.3 31
2018-04-27 17:00:00 19.8 6 Sudoeste 22 Sur 0 918.2 -1.2 34
2018-04-27 16:00:00 17.9 9 Sudoeste 24 Sur 0 918.7 -1.1 36
2018-04-27 15:00:00 18.3 8 Sudoeste 28 Sudoeste 0 919.2 -0.6 39
2018-04-27 14:00:00 18.5 14 Sudoeste 27 Sur 0 919.4 -0.4 42
2018-04-27 13:00:00 17.7 8 Sudoeste 28 Oeste 0 919.8 0.1 39
2018-04-27 12:00:00 17.6 5 Oeste 20 Sudoeste 0 919.8 0.5 41
2018-04-27 11:00:00 16.5 5 Oeste 22 Oeste 0 919.8 0.8 46
2018-04-27 10:00:00 13.8 3 Oeste 16 Oeste 0 919.7 1.2 53
2018-04-27 09:00:00 9.5 2 Oeste 10 Sudoeste 0 919.3 0.7 74
2018-04-27 08:00:00 5.4 0 Calma 10 Noroeste 0 919 0.2 94
2018-04-27 07:00:00 4.7 0 Calma 8 Noroeste 0 918.5 -0.5 94
2018-04-27 06:00:00 5.5 0 Calma 8 Noroeste 0 918.6 -0.7 94
2018-04-27 05:00:00 6.3 0 Calma 4 Sudoeste 0 918.8 -1 93
2018-04-27 04:00:00 7.6 4 Sur 6 Sudoeste 0 919 -1 93
2018-04-27 03:00:00 8.6 2 Norte 8 Noroeste 0 919.3 -1 93
2018-04-27 02:00:00 8.6 3 Norte 6 Noroeste 0 919.8 -0.9 90
2018-04-27 01:00:00 8.9 4 Nordeste 8 Nordeste 0 920 -0.6 85
2018-04-27 00:00:00 9.3 3 Nordeste 7 Nordeste 0 920.3 -0.4 83
2018-04-26 23:00:00 10.7 0 Calma 4 Este 0 920.7 -0.2 79
2018-04-26 22:00:00 12.9 0 Calma 3 Noroeste 0 920.6 -0.8 71
2018-04-26 21:00:00 16 0 Calma 11 Este 0 920.7 -1.2 59
2018-04-26 20:00:00 18.2 7 Este 14 Este 0 920.9 -1.6 46
2018-04-26 19:00:00 20 6 Este 15 Este 0 921.4 -2 42
2018-04-26 18:00:00 20.3 7 Sudeste 17 Este 0 921.9 -2 36
2018-04-26 17:00:00 19.5 8 Este 24 Este 0 922.5 -2.1 35
2018-04-26 16:00:00 18.3 8 Nordeste 26 Nordeste 0 923.4 -1.9 37
2018-04-26 15:00:00 17.3 10 Nordeste 26 Nordeste 0 923.9 -1.9 43
2018-04-26 14:00:00 15.9 10 Este 27 Nordeste 0 924.6 -1.3 46
2018-04-26 13:00:00 14.9 12 Este 28 Nordeste 0 925.3 -1 49
2018-04-26 12:00:00 13.5 11 Este 35 Nordeste 0 925.8 -0.6 57
2018-04-26 11:00:00 11.8 13 Este 36 Nordeste 0 925.9 -0.3 63
2018-04-26 10:00:00 10 16 Nordeste 42 Nordeste 0 926.3 0.5 68
2018-04-26 09:00:00 7.9 17 Nordeste 37 Nordeste 0 926.4 0.6 75
2018-04-26 08:00:00 6.6 10 Nordeste 24 Nordeste 0 926.2 -0.1 83
2018-04-26 07:00:00 6.1 8 Nordeste 33 Nordeste 0 925.8 -0.7 85
2018-04-26 06:00:00 6.4 9 Nordeste 29 Nordeste 0 925.8 -1.5 83
2018-04-26 05:00:00 6.9 10 Nordeste 30 Este 0 926.3 -1.6 84
2018-04-26 04:00:00 7.1 12 Nordeste 29 Nordeste 0 926.5 -1 84
2018-04-26 03:00:00 7.2 11 Este 29 Nordeste 0 927.3 -0.4 84
2018-04-26 02:00:00 7.8 11 Nordeste 33 Nordeste 0 927.9 0.3 83
2018-04-26 01:00:00 8.4 10 Nordeste 33 Nordeste 0 927.5 0.4 81
2018-04-26 00:00:00 9.1 12 Nordeste 37 Este 0 927.7 1.7 79
2018-04-25 23:00:00 9.5 14 Nordeste 40 Este 0 927.6 2.3 79
2018-04-25 22:00:00 10.1 16 Este 38 Nordeste 0 927.1 2.4 78
2018-04-25 21:00:00 11.1 17 Este 40 Este 0 926 1.7 75
2018-04-25 20:00:00 12.7 19 Este 48 Este 0 925.3 1.4 71
2018-04-25 19:00:00 15.6 21 Este 48 Este 0 924.7 0.4 60
2018-04-25 18:00:00 18.8 19 Este 44 Este 0 924.3 -0.3 55
2018-04-25 17:00:00 22.2 13 Este 34 Este 0 923.9 -1.1 51
2018-04-25 16:00:00 22.9 9 Nordeste 24 Norte 0 924.3 -1.3 51
2018-04-25 15:00:00 22.3 8 Nordeste 19 Nordeste 0 924.6 -1.4 51
2018-04-25 14:00:00 20.8 9 Nordeste 22 Nordeste 0 925 -1.2 55
2018-04-25 13:00:00 19.8 9 Este 24 Nordeste 0 925.6 -0.5 57
2018-04-25 12:00:00 18 10 Este 27 Este 0 926 0.3 65
2018-04-25 11:00:00 16 10 Este 28 Nordeste 0 926.2 1.7 72
2018-04-25 10:00:00 12.8 12 Este 30 Este 0 926.1 2.3 83
2018-04-25 09:00:00 11.6 8 Este 26 Nordeste 0 925.7 2.2 83
2018-04-25 08:00:00 9.8 6 Nordeste 17 Nordeste 0 924.5 0.8 82
2018-04-25 07:00:00 9.7 5 Nordeste 13 Nordeste 0 923.8 0.5 79
2018-04-25 06:00:00 10.2 0 Calma 16 Este 0 923.5 -0.1 79
2018-04-25 05:00:00 11.8 5 Nordeste 16 Nordeste 0 923.7 -0.2 73
2018-04-25 04:00:00 12.9 9 Norte 17 Norte 0 923.3 -1 69
2018-04-25 03:00:00 12.6 8 Nordeste 19 Nordeste 0 923.6 -0.9 71
2018-04-25 02:00:00 13.7 5 Nordeste 23 Nordeste 0 923.9 -0.2 69
2018-04-25 01:00:00 14.5 8 Nordeste 21 Nordeste 0 924.3 0.9 65
2018-04-25 00:00:00 14.8 8 Nordeste 24 Nordeste 0 924.5 1.9 68
2018-04-24 23:00:00 15.6 9 Nordeste 21 Nordeste 0 924.1 1.7 72
2018-04-24 22:00:00 16.5 2 Norte 4 Nordeste 0 923.4 0.9 65
2018-04-24 21:00:00 20 4 Sudeste 6 Sudeste 0 922.6 0 47
2018-04-24 20:00:00 23.1 3 Este 8 Este 0 922.4 -0.6 37
2018-04-24 19:00:00 25 4 Este 12 Nordeste 0 922.5 -1.1 30
2018-04-24 18:00:00 25.1 4 Este 12 Nordeste 0 922.6 -1.5 29
2018-04-24 17:00:00 25.1 5 Este 15 Nordeste 0 923 -1.5 32
2018-04-24 16:00:00 24.4 5 Este 17 Este 0 923.6 -1.4 40
2018-04-24 15:00:00 23.7 5 Sudeste 15 Sudeste 0 924.1 -1.1 42
2018-04-24 14:00:00 22.3 7 Sudeste 16 Sudeste 0 924.5 -0.6 45
2018-04-24 13:00:00 21 6 Este 15 Este 0 925 -0.3 50
2018-04-24 12:00:00 19.6 8 Sudeste 19 Este 0 925.2 -0.1 54
2018-04-24 11:00:00 17.8 7 Nordeste 15 Nordeste 0 925.1 0.2 60
2018-04-24 10:00:00 15.7 5 Nordeste 14 Nordeste 0 925.3 0.9 71
2018-04-24 09:00:00 11.4 3 Nordeste 8 Nordeste 0 925.3 1 89
2018-04-24 08:00:00 9.2 0 Calma 9 Norte 0 924.9 0.4 93
2018-04-24 07:00:00 9.8 6 Nordeste 17 Nordeste 0 924.4 -0.4 93
2018-04-24 06:00:00 10.6 9 Nordeste 20 Nordeste 0 924.3 -0.8 95
2018-04-24 05:00:00 10.4 10 Nordeste 21 Nordeste 0 924.5 -0.6 96
2018-04-24 04:00:00 10.9 10 Nordeste 21 Nordeste 0 924.8 -0.3 94
2018-04-24 03:00:00 11.6 5 Nordeste 18 Nordeste 0 925.1 -0.1 91
2018-04-24 02:00:00 12.6 9 Nordeste 26 Nordeste 0 925.1 -0.2 85
2018-04-24 01:00:00 13.3 13 Nordeste 26 Nordeste 0 925.1 0.2 84
2018-04-24 00:00:00 13.9 12 Nordeste 26 Nordeste 0 925.2 1.1 81
2018-04-23 23:00:00 14 8 Nordeste 21 Nordeste 0 925.3 1.8 79
2018-04-23 22:00:00 15 9 Nordeste 20 Nordeste 0 924.9 1.4 73
2018-04-23 21:00:00 16.5 5 Nordeste 14 Nordeste 0 924.1 0.4 67
2018-04-23 20:00:00 20 5 Este 19 Este 0 923.5 -0.2 56
2018-04-23 19:00:00 22.2 11 Este 23 Este 0 923.5 -0.5 47
2018-04-23 18:00:00 22.5 11 Sudeste 23 Sudeste 0 923.7 -0.9 49
2018-04-23 17:00:00 22.5 9 Este 23 Sudeste 0 923.7 -1.4 48
2018-04-23 16:00:00 22.1 12 Este 27 Este 0 924 -1.6 53
2018-04-23 15:00:00 21.7 10 Este 24 Sudeste 0 924.6 -1.1 53
2018-04-23 14:00:00 20.8 7 Este 19 Este 0 925.1 -0.4 56
2018-04-23 13:00:00 19.8 8 Este 22 Este 0 925.6 0.4 61
2018-04-23 12:00:00 18.7 8 Este 18 Este 0 925.7 0.9 60
2018-04-23 11:00:00 17 7 Este 18 Este 0 925.5 1.1 68
2018-04-23 10:00:00 14.3 8 Norte 15 Norte 0 925.2 1.2 76
2018-04-23 09:00:00 11.3 4 Nordeste 13 Nordeste 0 924.8 1 85
2018-04-23 08:00:00 9.8 5 Nordeste 23 Norte 0 924.4 0.4 85
2018-04-23 07:00:00 9.9 10 Norte 18 Norte 0 924 0.5 89
2018-04-23 06:00:00 9.1 7 Norte 13 Norte 0 923.8 -0.3 95
2018-04-23 05:00:00 8.9 3 Sudoeste 16 Nordeste 0 924 -0.3 88
2018-04-23 04:00:00 10.4 8 Nordeste 18 Nordeste 0 923.5 -0.7 85
2018-04-23 03:00:00 9.8 6 Norte 13 Norte 0 924.1 -0.2 93
2018-04-23 02:00:00 8.7 6 Norte 10 Norte 0 924.3 0.3 95
2018-04-23 01:00:00 8.5 0 Calma 6 Nordeste 0 924.2 1.2 94
2018-04-23 00:00:00 9.3 5 Norte 7 Nordeste 0 924.3 2.5 94
2018-04-22 23:00:00 10.3 0 Calma 6 Nordeste 0 924 2.1 87
2018-04-22 22:00:00 11.8 0 Calma 4 Norte 0 923 0.8 85
2018-04-22 21:00:00 14 3 Este 8 Sudeste 0 921.8 -0.7 77
2018-04-22 20:00:00 15 0 Calma 9 Sudeste 0 921.9 -0.3 80
2018-04-22 19:00:00 15.7 3 Sudeste 18 Nordeste 0 922.2 0.3 73
2018-04-22 18:00:00 18.1 2 Oeste 14 Oeste 0 922.5 -0.2 58
2018-04-22 17:00:00 19.7 5 Oeste 22 Sur 0 922.2 -0.6 49
2018-04-22 16:00:00 21.1 4 Oeste 12 Sudoeste 0 921.9 -1.2 42
2018-04-22 15:00:00 20.5 8 Sur 20 Este 0 922.7 -0.7 47
2018-04-22 14:00:00 19.2 5 Sudeste 13 Este 0 922.8 -1.5 57
2018-04-22 13:00:00 16 6 Nordeste 15 Norte 0 923.1 -0.9 72
2018-04-22 12:00:00 13.7 3 Norte 14 Sur 0 923.4 0.3 75
2018-04-22 11:00:00 14.2 7 Sudoeste 18 Sudoeste 0 924.3 1.3 77
2018-04-22 10:00:00 13.2 8 Sudoeste 15 Sudoeste 0 924 0.9 80
2018-04-22 09:00:00 9.8 4 Nordeste 10 Norte 0 923.1 -0.2 93
2018-04-22 08:00:00 7.6 3 Nordeste 6 Este 0 923 -0.5 95
2018-04-22 07:00:00 7.1 3 Este 4 Este 0 923.1 -0.7 96
2018-04-22 06:00:00 6.9 2 Norte 4 Sudoeste 0 923.3 -0.7 95
2018-04-22 05:00:00 7.2 0 Calma 8 Nordeste 0 923.5 -0.2 94
2018-04-22 04:00:00 7.5 2 Norte 5 Norte 0 923.8 -0.4 94
2018-04-22 03:00:00 7.9 0 Calma 4 Sur 0 924 0.2 92
2018-04-22 02:00:00 8.6 2 Nordeste 4 Norte 0 923.7 -0.1 92
2018-04-22 01:00:00 9.3 0 Calma 3 Noroeste 0 924.2 0.5 85
2018-04-22 00:00:00 10.7 0 Calma 6 Nordeste 0 923.8 0.5 81